createdAt,value
2019-05-21T00:00:56.754Z,21.48
2019-05-21T00:05:00.479Z,22.10
2019-05-21T00:09:04.718Z,22.00
2019-05-21T00:13:08.183Z,23.30
2019-05-21T00:17:12.415Z,21.15
2019-05-21T00:21:15.899Z,21.25
2019-05-21T00:25:19.491Z,21.33
2019-05-21T00:29:58.853Z,23.02
2019-05-21T00:34:44.001Z,21.55
2019-05-21T00:39:19.996Z,21.93
2019-05-21T00:43:29.186Z,22.32
2019-05-21T00:47:32.654Z,22.05
2019-05-21T00:51:36.190Z,21.97
2019-05-21T00:55:39.931Z,21.15
2019-05-21T00:59:43.743Z,20.97
2019-05-21T01:03:47.202Z,21.50
2019-05-21T01:07:50.651Z,21.30
2019-05-21T01:11:54.445Z,20.43
2019-05-21T01:15:57.932Z,20.25
2019-05-21T01:20:01.682Z,20.57
2019-05-21T01:24:05.671Z,20.92
2019-05-21T01:28:09.415Z,21.27
2019-05-21T01:32:12.894Z,23.42
2019-05-21T01:36:16.391Z,22.85
2019-05-21T01:40:19.928Z,22.70
2019-05-21T01:44:23.740Z,23.50
2019-05-21T01:48:27.225Z,23.60
2019-05-21T01:52:30.743Z,23.77
2019-05-21T01:56:34.217Z,23.32
2019-05-21T02:00:37.704Z,24.82
2019-05-21T02:04:41.504Z,22.35
2019-05-21T02:08:45.038Z,22.58
2019-05-21T02:12:48.516Z,25.00
2019-05-21T02:16:51.962Z,22.37
2019-05-21T02:20:55.481Z,24.57
2019-05-21T02:24:59.245Z,23.65
2019-05-21T02:29:02.748Z,23.65
2019-05-21T02:33:06.230Z,24.10
2019-05-21T02:37:09.706Z,23.47
2019-05-21T02:41:13.420Z,23.80
2019-05-21T02:45:17.223Z,23.75
2019-05-21T02:49:20.677Z,23.47
2019-05-21T02:53:24.432Z,23.20
2019-05-21T02:57:40.883Z,24.30
2019-05-21T03:01:48.616Z,23.27
2019-05-21T03:05:52.354Z,22.87
2019-05-21T03:09:55.887Z,21.97
2019-05-21T03:13:59.380Z,23.85
2019-05-21T03:18:02.890Z,22.32
2019-05-21T03:22:06.454Z,22.82
2019-05-21T03:26:09.907Z,20.97
2019-05-21T03:30:13.610Z,20.43
2019-05-21T03:34:17.133Z,20.80
2019-05-21T03:38:20.952Z,19.52
2019-05-21T03:42:24.885Z,20.47
2019-05-21T03:46:28.670Z,19.77
2019-05-21T03:50:32.198Z,20.92
2019-05-21T03:54:35.670Z,19.85
2019-05-21T03:58:39.143Z,19.98
2019-05-21T04:02:42.978Z,22.20
2019-05-21T04:06:51.784Z,22.00
2019-05-21T04:10:51.927Z,19.03
2019-05-21T04:15:00.060Z,20.48
2019-05-21T04:19:16.943Z,19.57
2019-05-21T04:23:20.423Z,19.25
2019-05-21T04:27:23.959Z,20.80
2019-05-21T04:31:27.471Z,20.90
2019-05-21T04:35:30.946Z,19.10
2019-05-21T04:39:34.712Z,20.50
2019-05-21T04:43:38.478Z,20.15
2019-05-21T04:47:41.968Z,21.02
2019-05-21T04:51:45.424Z,21.87
2019-05-21T04:55:48.904Z,21.33
2019-05-21T04:59:52.390Z,22.98
2019-05-21T05:03:55.865Z,20.95
2019-05-21T05:08:02.379Z,21.57
2019-05-21T05:12:05.910Z,21.15
2019-05-21T05:16:13.609Z,21.33
2019-05-21T05:20:17.267Z,20.05
2019-05-21T05:24:20.713Z,21.45
2019-05-21T05:28:24.447Z,20.35
2019-05-21T05:32:27.901Z,20.05
2019-05-21T05:36:31.375Z,18.67
2019-05-21T05:40:34.853Z,18.57
2019-05-21T05:44:38.754Z,17.77
2019-05-21T05:48:43.872Z,18.20
2019-05-21T05:52:47.331Z,19.15
2019-05-21T05:56:52.898Z,20.37
2019-05-21T06:00:56.372Z,19.77
2019-05-21T06:05:00.088Z,23.13
2019-05-21T06:09:04.990Z,20.53
2019-05-21T06:13:08.785Z,20.40
2019-05-21T06:17:12.266Z,19.30
2019-05-21T06:21:15.804Z,19.02
2019-05-21T06:25:19.736Z,21.25
2019-05-21T06:29:23.610Z,20.50
2019-05-21T06:33:27.505Z,20.30
2019-05-21T06:37:33.624Z,20.05
2019-05-21T06:41:37.250Z,20.52
2019-05-21T06:45:41.261Z,20.05
2019-05-21T06:49:45.839Z,20.62
2019-05-21T06:53:51.925Z,19.85
2019-05-21T06:57:57.131Z,19.32
2019-05-21T07:02:00.928Z,21.55
2019-05-21T07:06:04.461Z,20.85
2019-05-21T07:10:08.474Z,21.30
2019-05-21T07:14:12.248Z,22.32
2019-05-21T07:18:15.951Z,22.13
2019-05-21T07:22:19.466Z,21.80
2019-05-21T07:26:22.927Z,22.93
2019-05-21T07:30:26.478Z,24.92
2019-05-21T07:34:30.216Z,23.25
2019-05-21T07:38:51.562Z,22.42
2019-05-21T07:42:39.253Z,23.60
2019-05-21T07:46:43.036Z,23.65
2019-05-21T07:50:46.767Z,23.32
2019-05-21T07:54:50.218Z,24.05
2019-05-21T07:58:53.974Z,24.40
2019-05-21T08:02:57.438Z,23.27
2019-05-21T08:07:01.150Z,24.72
2019-05-21T08:11:04.772Z,23.00
2019-05-21T08:15:08.957Z,23.62
2019-05-21T08:19:12.586Z,23.38
2019-05-21T08:23:16.294Z,22.50
2019-05-21T08:27:19.830Z,24.25
2019-05-21T08:31:23.282Z,22.87
2019-05-21T08:35:27.004Z,24.32
2019-05-21T08:39:30.473Z,24.05
2019-05-21T08:43:33.942Z,24.32
2019-05-21T08:47:37.715Z,22.17
2019-05-21T08:51:41.176Z,21.70
2019-05-21T08:55:44.694Z,21.07
2019-05-21T08:59:48.354Z,21.85
2019-05-21T09:03:51.850Z,21.73
2019-05-21T09:07:55.674Z,19.12
2019-05-21T09:11:59.493Z,19.48
2019-05-21T09:16:05.805Z,20.30
2019-05-21T09:20:11.060Z,20.77
2019-05-21T09:24:14.621Z,19.80
2019-05-21T09:28:18.142Z,17.77
2019-05-21T09:32:21.640Z,18.82
2019-05-21T09:36:25.435Z,17.02
2019-05-21T09:40:29.814Z,16.77
2019-05-21T09:44:33.339Z,14.45
2019-05-21T09:48:36.836Z,14.83
2019-05-21T09:52:40.280Z,13.95
2019-05-21T09:56:43.739Z,13.50
2019-05-21T10:01:00.817Z,14.55
2019-05-21T10:05:06.397Z,14.03
2019-05-21T10:09:11.930Z,14.23
2019-05-21T10:13:15.395Z,17.00
2019-05-21T10:17:18.864Z,17.98
2019-05-21T10:21:22.632Z,15.83
2019-05-21T10:25:26.175Z,16.17
2019-05-21T10:29:29.663Z,15.60
2019-05-21T10:33:33.476Z,15.30
2019-05-21T10:37:36.934Z,15.35
2019-05-21T10:41:40.405Z,13.58
2019-05-21T10:45:44.118Z,13.90
2019-05-21T10:49:47.594Z,13.13
2019-05-21T10:53:51.180Z,12.63
2019-05-21T10:57:54.811Z,12.98
2019-05-21T11:02:05.651Z,13.72
2019-05-21T11:06:10.656Z,14.45
2019-05-21T11:10:14.529Z,14.80
2019-05-21T11:14:18.025Z,14.30
2019-05-21T11:18:21.688Z,15.20
2019-05-21T11:22:25.142Z,15.50
2019-05-21T11:26:28.884Z,14.13
2019-05-21T11:30:32.800Z,14.20
2019-05-21T11:34:36.356Z,14.23
2019-05-21T11:38:40.558Z,14.75
2019-05-21T11:42:44.335Z,15.25
2019-05-21T11:46:47.880Z,14.15
2019-05-21T11:50:51.350Z,14.93
2019-05-21T11:54:55.997Z,14.23
2019-05-21T11:58:59.908Z,14.90
2019-05-21T12:03:03.727Z,14.93
2019-05-21T12:07:07.535Z,14.87
2019-05-21T12:11:11.177Z,18.50
2019-05-21T12:15:15.406Z,19.55
2019-05-21T12:19:19.215Z,18.50
2019-05-21T12:23:22.733Z,22.58
2019-05-21T12:27:28.047Z,19.85
2019-05-21T12:31:31.888Z,11.33
2019-05-21T12:35:35.388Z,9.98
2019-05-21T12:39:38.856Z,11.53
2019-05-21T12:43:42.322Z,11.38
2019-05-21T12:47:46.196Z,12.30
2019-05-21T12:51:49.661Z,13.00
2019-05-21T12:55:53.118Z,14.05
2019-05-21T12:59:56.595Z,13.32
2019-05-21T13:04:00.039Z,17.12
2019-05-21T13:08:03.602Z,16.82
2019-05-21T13:12:07.190Z,17.65
2019-05-21T13:16:10.662Z,18.67
2019-05-21T13:20:14.895Z,19.82
2019-05-21T13:24:18.475Z,18.70
2019-05-21T13:28:21.998Z,20.65
2019-05-21T13:32:25.542Z,20.48
2019-05-21T13:36:29.854Z,22.18
2019-05-21T13:40:34.600Z,22.45
2019-05-21T13:44:38.049Z,24.45
2019-05-21T13:48:41.520Z,25.40
2019-05-21T13:52:45.054Z,29.63
2019-05-21T13:56:48.771Z,29.77
2019-05-21T14:00:54.150Z,29.40
2019-05-21T14:04:57.602Z,30.90
2019-05-21T14:09:01.130Z,30.60
2019-05-21T14:13:04.875Z,30.57
2019-05-21T14:17:08.652Z,30.45
2019-05-21T14:21:12.457Z,31.63
2019-05-21T14:25:15.979Z,32.42
2019-05-21T14:29:19.757Z,30.88
2019-05-21T14:33:23.296Z,30.68
2019-05-21T14:37:26.762Z,31.52
2019-05-21T14:41:30.487Z,31.40
2019-05-21T14:45:34.737Z,29.77
2019-05-21T14:49:38.258Z,29.00
2019-05-21T14:53:41.815Z,31.15
2019-05-21T14:57:45.366Z,29.07
2019-05-21T15:01:49.102Z,26.62
2019-05-21T15:05:52.574Z,27.73
2019-05-21T15:09:56.406Z,23.10
2019-05-21T15:13:59.876Z,18.27
2019-05-21T15:18:03.409Z,16.07
2019-05-21T15:22:06.879Z,14.85
2019-05-21T15:26:10.629Z,14.58
2019-05-21T15:30:14.476Z,13.03
2019-05-21T15:34:18.010Z,12.80
2019-05-21T15:38:21.472Z,14.60
2019-05-21T15:42:25.199Z,17.23
2019-05-21T15:46:45.461Z,17.32
2019-05-21T15:50:33.964Z,18.93
2019-05-21T15:54:37.503Z,18.48
2019-05-21T15:58:41.244Z,20.00
2019-05-21T16:02:44.847Z,18.73
2019-05-21T16:06:48.370Z,19.42
2019-05-21T16:10:52.179Z,20.97
2019-05-21T16:14:56.586Z,18.37
2019-05-21T16:19:00.076Z,19.60
2019-05-21T16:23:03.553Z,20.30
2019-05-21T16:27:07.019Z,20.03
2019-05-21T16:31:10.468Z,19.73
2019-05-21T16:35:14.320Z,19.60
2019-05-21T16:39:19.438Z,16.62
2019-05-21T16:43:23.264Z,20.37
2019-05-21T16:47:43.925Z,21.57
2019-05-21T16:51:34.650Z,18.05
2019-05-21T16:55:38.296Z,17.48
2019-05-21T16:59:42.124Z,15.75
2019-05-21T17:03:59.156Z,16.45
2019-05-21T17:07:50.781Z,16.77
2019-05-21T17:12:00.172Z,16.55
2019-05-21T17:15:59.390Z,16.97
2019-05-21T17:20:03.760Z,17.05
2019-05-21T17:24:07.296Z,18.50
2019-05-21T17:28:10.810Z,17.90
2019-05-21T17:32:14.402Z,19.65
2019-05-21T17:36:17.862Z,17.70
2019-05-21T17:40:21.392Z,15.98
2019-05-21T17:44:25.047Z,15.58
2019-05-21T17:48:28.527Z,14.98
2019-05-21T17:52:32.255Z,15.53
2019-05-21T17:56:35.715Z,14.15
2019-05-21T18:00:49.540Z,13.53
2019-05-21T18:04:53.412Z,13.50
2019-05-21T18:08:56.880Z,11.88
2019-05-21T18:13:00.333Z,10.63
2019-05-21T18:17:05.193Z,9.60
2019-05-21T18:21:09.140Z,10.43
2019-05-21T18:25:14.182Z,9.45
2019-05-21T18:29:17.998Z,9.45
2019-05-21T18:33:21.511Z,10.38
2019-05-21T18:37:26.960Z,9.63
2019-05-21T18:41:30.534Z,10.55
2019-05-21T18:45:34.324Z,8.68
2019-05-21T18:49:37.767Z,8.75
2019-05-21T18:53:41.257Z,9.40
2019-05-21T18:57:44.910Z,8.68
2019-05-21T19:01:48.658Z,9.23
2019-05-21T19:05:52.193Z,10.32
2019-05-21T19:09:56.375Z,9.20
2019-05-21T19:13:59.822Z,8.80
2019-05-21T19:18:03.290Z,10.03
2019-05-21T19:22:07.082Z,8.97
2019-05-21T19:26:10.629Z,9.27
2019-05-21T19:30:15.227Z,8.45
2019-05-21T19:34:18.686Z,8.58
2019-05-21T19:38:22.162Z,8.30
2019-05-21T19:42:25.675Z,8.28
2019-05-21T19:46:29.436Z,10.80
2019-05-21T19:50:33.485Z,12.47
2019-05-21T19:54:36.946Z,13.30
2019-05-21T19:58:40.421Z,13.40
2019-05-21T20:02:44.175Z,14.23
2019-05-21T20:06:47.645Z,14.83
2019-05-21T20:10:51.447Z,15.50
2019-05-21T20:14:55.113Z,14.75
2019-05-21T20:18:58.836Z,16.12
2019-05-21T20:23:02.738Z,16.12
2019-05-21T20:27:07.534Z,15.58
2019-05-21T20:31:11.068Z,16.13
2019-05-21T20:35:16.168Z,15.43
2019-05-21T20:39:19.874Z,15.05
2019-05-21T20:43:24.318Z,16.17
2019-05-21T20:47:27.785Z,15.88
2019-05-21T20:51:31.853Z,16.12
2019-05-21T20:55:35.852Z,16.30
2019-05-21T20:59:39.550Z,15.15
2019-05-21T21:03:43.099Z,17.55
2019-05-21T21:07:46.688Z,15.83
2019-05-21T21:11:50.469Z,15.83
2019-05-21T21:15:54.675Z,16.20
2019-05-21T21:19:58.219Z,16.87
2019-05-21T21:24:02.228Z,15.25
2019-05-21T21:28:05.697Z,18.23
2019-05-21T21:32:09.501Z,18.37
2019-05-21T21:36:13.789Z,18.50
2019-05-21T21:40:18.483Z,19.10
2019-05-21T21:44:33.456Z,19.83
2019-05-21T21:48:29.031Z,20.57
2019-05-21T21:52:32.975Z,19.33
2019-05-21T21:56:36.527Z,21.60
2019-05-21T22:00:59.338Z,22.77
2019-05-21T22:05:03.348Z,19.10
2019-05-21T22:09:08.507Z,23.73
2019-05-21T22:13:13.075Z,22.27
2019-05-21T22:17:18.201Z,24.37
2019-05-21T22:21:22.362Z,24.15
2019-05-21T22:25:25.953Z,23.47
2019-05-21T22:29:29.459Z,21.45
2019-05-21T22:33:33.658Z,22.90
2019-05-21T22:37:37.131Z,24.90
2019-05-21T22:41:40.642Z,23.85
2019-05-21T22:45:44.189Z,24.27
2019-05-21T22:49:47.638Z,24.50
2019-05-21T22:53:51.458Z,22.52
2019-05-21T22:57:55.134Z,24.10
2019-05-21T23:01:59.088Z,23.80
2019-05-21T23:06:02.923Z,25.85
2019-05-21T23:10:08.161Z,27.50
2019-05-21T23:14:12.013Z,25.83
2019-05-21T23:18:15.552Z,26.85
2019-05-21T23:22:21.886Z,23.80
2019-05-21T23:26:25.338Z,24.15
2019-05-21T23:30:29.115Z,23.67
2019-05-21T23:34:32.573Z,24.27
2019-05-21T23:38:36.933Z,22.90
2019-05-21T23:42:42.033Z,22.52
2019-05-21T23:46:45.627Z,20.73
2019-05-21T23:50:49.097Z,22.42
2019-05-21T23:54:52.827Z,24.12
2019-05-21T23:58:56.723Z,23.12
